Detall de PIREP

Printer-friendly versionPDF version

[2016/01/05 11:55:00]
Flight IATA:CT1004
Pilot Number:012
Company ICAO:CAT
Aircraft Type:B738/F
PAX:160
Departing Airport: LFBO
Destination Airport: LEVC
Alternate Airport:LEPA
Online: VATSIM
Route:ANETO UN860 SAURA
Flight Level:F310
No Slew and time accel
No pause
Crash detect
Detect pilot in Cockpit between each 30 and 45 minutes
11:55 Zero fuel Weight: 128161 Lbs, Fuel Weight: 14669 Lbs
11:55 VATSIM:LFBO 051130Z AUTO 26015KT 9999 -RA FEW025 SCT046 BKN062 09/05 Q1003
11:55 VATSIM:LEVC 051130Z 28010KT 9999 SCT030 16/03 Q1005 NOSIG
11:56 X-MAS CHARTER
12:23 Parking Brakes off
12:30 Take-off
12:30 Take off Weight: 142077 Lbs
12:30 Wind: 280º @ 014 Knots Heading: 320º
12:30 POS N43º 37´ 53´´ E001º 21´ 31´´
12:30 Gear Up: 160 Knots
12:30 Flaps:3 at 160 Knots
12:30 Flaps:2 at 179 Knots
12:30 Flaps:1 at 184 Knots
12:30 Flaps:0 at 199 Knots
12:45 Wind:243º@073 Knots Heading: 197º Ground Speed: 414 Knots Altitude 29973 ft
13:00 Wind:239º@089 Knots Heading: 204º Ground Speed: 394 Knots Altitude 30702 ft
13:15 Wind:271º@020 Knots Heading: 175º Ground Speed: 271 Knots Altitude 5639 ft
13:16 Flaps:1 at 217 Knots
13:16 Flaps:2 at 212 Knots
13:17 Flaps:3 at 184 Knots
13:17 Flaps:4 at 179 Knots
13:18 Flaps:5 at 179 Knots
13:18 Gear Down: 178 Knots
13:19 Flaps:6 at 163 Knots
13:19 Flaps:7 at 157 Knots
13:20 Flaps:8 at 155 Knots
13:24 TouchDown:Rate -259 ft/min Speed: 125 Knots
13:25 VATSIM:LEVC 051300Z 28018G29KT 230V310 9999 FEW030 17/00 Q1004 NOSIG
13:25 Land
13:25 Wind:281º@016 Knots
13:25 Heading: 352º
13:25 Flight Duration: 00:55
13:25 Landing Weight: 135741 Lbs
13:25 POS N39º 29´ 21´´ W000º 28´ 52´´
13:26 Parking brakes on
13:26 Block to Block Duration: 01:03
13:26 Final Fuel: 7462 Lbls
13:26 Spent Fuel: 7206 Lbls
13:26 Flight Length: 294 NM
13:26 TOD Land Length: 294 NM

Exportar CSV

Powered by Drupal - Modified by Danger4k